E.r. Borneo — A8SZ4 — position and weather

sailwx.info

Track history (hours):
 
Tides and Currents Weather Stations Pressure Air Temp Water Temp Dewpoint Dewpoint Depression Visibility Wind Speed Wind Dir Waves Ship Positions

E.r. Borneo

Last reported at 2016-Sep-02 06:12 UTC. Time now 2016-Sep-28 06:59 UTC.
Position S 38°18' E 148°59'.
Warning: this ship's position is 26 days out of date.

Length 292 m; draft 18.3 m.

Type: Cargo ship. MMSI: 636091797.

Date/timePositionNaut miles runAvg speedWind from/ knotsBaromVisibWave heightAir tempDewpointWater temp
2016-Sep-02 06:12S 38°18' E 148°59'811.9
2016-Sep-02 05:34S 38°14' E 149°07'1212.0
2016-Sep-02 04:34S 38°07' E 149°20'1211.9
2016-Sep-02 03:34S 38°01' E 149°33'1111.2
2016-Sep-02 02:33S 37°54' E 149°44'1111.5
2016-Sep-02 01:34S 37°48' E 149°56'1211.6
2016-Sep-02 00:34S 37°42' E 150°09'1211.7
2016-Sep-01 23:34S 37°36' E 150°21'1312.6
2016-Sep-01 22:33S 37°29' E 150°34'1312.9
2016-Sep-01 21:34S 37°17' E 150°41'1312.9
2016-Sep-01 20:34S 37°05' E 150°47'1212.5
2016-Sep-01 19:34S 36°53' E 150°53'1211.9
2016-Sep-01 18:31S 36°42' E 150°59'24811.6
2016-Aug-31 21:09S 32°52' E 152°53'913.0
2016-Aug-31 20:30S 32°44' E 152°56'34512.8
2016-Aug-30 17:34S 27°03' E 153°50'  
Track history (hours):
 
Tides and Currents Weather Stations Pressure Air Temp Water Temp Dewpoint Dewpoint Depression Visibility Wind Speed Wind Dir Waves Ship Positions

E.r. Borneo

Last reported at 2016-Sep-02 06:12 UTC. Time now 2016-Sep-28 06:59 UTC.
Position S 38°18' E 148°59'.
Warning: this ship's position is 26 days out of date.

Length 292 m; draft 18.3 m.

Type: Cargo ship. MMSI: 636091797.

Date/timePositionNaut miles runAvg speedWind from/ knotsBaromVisibWave heightAir tempDewpointWater temp
2016-Sep-02 06:12S 38°18' E 148°59'811.9
2016-Sep-02 05:34S 38°14' E 149°07'1212.0
2016-Sep-02 04:34S 38°07' E 149°20'1211.9
2016-Sep-02 03:34S 38°01' E 149°33'1111.2
2016-Sep-02 02:33S 37°54' E 149°44'1111.5
2016-Sep-02 01:34S 37°48' E 149°56'1211.6
2016-Sep-02 00:34S 37°42' E 150°09'1211.7
2016-Sep-01 23:34S 37°36' E 150°21'1312.6
2016-Sep-01 22:33S 37°29' E 150°34'1312.9
2016-Sep-01 21:34S 37°17' E 150°41'1312.9
2016-Sep-01 20:34S 37°05' E 150°47'1212.5
2016-Sep-01 19:34S 36°53' E 150°53'1211.9
2016-Sep-01 18:31S 36°42' E 150°59'24811.6
2016-Aug-31 21:09S 32°52' E 152°53'913.0
2016-Aug-31 20:30S 32°44' E 152°56'34512.8
2016-Aug-30 17:34S 27°03' E 153°50'  

Dump ship's entire track history